F
Liste des engagé(e)s
Classement
PDF
   
         
   
 
Pos N° Nom Prénom Pays Temps Ecart Pl. Cat. Pl. Sexe Club
1 1082 LE BIHAN KRILAN 00:30:22 1 ES 1 M A.S. Université Franche-Comté
2 1078 JARD BAPTISTE 00:30:48 26 2 ES 2 M INSA LYON
3 1039 BOUKEBAL AZIZ 00:30:50 28 1 SE 3 M INSA TOULOUSE
4 1072 GRARD MATTHIEU 00:31:00 38 2 SE 4 M EC LYON
5 1049 CARTIER JONATHAN 00:31:17 55 3 SE 5 M UT3 P. SABATIER TOULOUSE
6 1105 ZISWILLER PAUL 00:31:41 01:19 1 JU 6 M INSA TOULOUSE
7 1046 CACHARD SYLVAIN 00:31:49 01:27 3 ES 7 M INSA LYON
8 1090 MESSAI CHARLIE 00:31:53 01:31 4 SE 8 M UDL - UTE LYON 3
9 1041 BOURGEOIS ALEXANDRE 00:31:57 01:35 5 SE 9 M ASUB - STAPS Dijon
10 1080 LALLEMAND DAMIEN 00:32:07 01:45 4 ES 10 M Univ Lorraine - Staps Nancy
11 1104 VULLIEZ ALBAN 00:32:28 02:06 6 SE 11 M ASUB - STAPS Dijon
12 1087 MANI ALEXANDRE 00:32:41 02:19 5 ES 12 M CENTRALE NANTES
13 1033 ABADIE PAUL 00:32:50 02:28 6 ES 13 M UT3 P. SABATIER TOULOUSE
14 1099 THEARD AMAURY 00:32:56 02:34 7 ES 14 M ASU BORDEAUX - UBM
15 1035 ARDISSON HUBERT 00:32:56 02:34 7 SE 15 M ASU GRENOBLE ALPES STAPS
16 1055 DEBOISE OSCAR 00:33:05 02:43 8 SE 16 M INSA TOULOUSE
17 1043 BOVE FRANCOIS JOSEPH 00:33:20 02:58 2 JU 17 M STAPS PARIS DESCARTES
18 1034 ALLIER VICTOR 00:33:31 03:09 8 ES 18 M CR Sport U Grenoble Individuel
19 1066 FOURNOL ADRIEN 00:33:37 03:15 9 ES 19 M AS GRENOBLE INP
20 1086 MAMERS SAM 00:33:38 03:16 10 ES 20 M EC LYON
21 1091 N'ZAOU MAX 00:33:44 03:22 9 SE 21 M AS GRENOBLE INP
22 1081 LATELLA SEBASTIEN 00:33:47 03:25 11 ES 22 M AS AMU GAP FSS
23 1059 FOURMONT BAPTISTE 00:33:48 03:26 10 SE 23 M INSA LYON
24 1065 FOROT JONAS 00:34:10 03:48 12 ES 24 M ASU GRENOBLE ALPES STAPS
25 1044 BRINGUIER BAPTISTE 00:34:17 03:55 3 JU 25 M INSA LYON
26 1100 THERY CYRIL 00:34:23 04:01 11 SE 26 M ASU GRENOBLE ALPES
27 1071 GERMAIN ANTOINE 00:34:38 04:16 4 JU 27 M Université de Savoie (IUT Ann)
28 1088 MARMET DYLAN 00:34:44 04:22 5 JU 28 M ASU GRENOBLE ALPES STAPS
29 1108 LEGRAND JULIEN 00:34:51 04:29 13 ES 29 M EC LYON
30 1053 DAVESNE NICOLAS 00:34:52 04:30 14 ES 30 M UDL - UJM STAPS
31 1063 FERNANDES NICOLAS 00:34:54 04:32 15 ES 31 M Staps Cuffies
32 1025 PIOLOT TIFENN 00:34:54 04:32 1 ES 1 F SCIENCES PO GRENOBLE
33 1058 DUPUY CLEMENT 00:34:55 04:33 12 SE 32 M INSA LYON
34 1068 GAMBIER ALEXIS 00:34:58 04:36 16 ES 33 M AS UNIV.ARTOIS-STAPS LIEVIN
35 1067 FRAISSE DORIAN 00:35:06 04:44 17 ES 34 M UDL - UJM STAPS
36 1056 DELMAS HUGO 00:35:06 04:44 18 ES 35 M UDL - UJM STAPS
37 1079 KRAEMER PAUL 00:35:06 04:44 19 ES 36 M EC LYON
38 1097 SAMMURI LUCAS 00:35:20 04:58 6 JU 37 M ASU GRENOBLE ALPES STAPS
39 1109 AVINENC THIBAUT 00:35:41 05:19 7 JU 38 M LYON 2
40 1008 FERAUD HELOISE 00:35:42 05:20 2 ES 2 F AS AMU GAP FSS
41 1057 DUCELLIER THOMAS 00:35:54 05:32 20 ES 39 M U. Clermont Auv. DROIT-ECO
42 1022 MAAMOURI CORALINE 00:36:00 05:38 3 ES 3 F INSA LYON
43 1047 CAMUS ANTOINE 00:36:05 05:43 21 ES 40 M AS GRENOBLE INP
44 1009 GASNIER CAPUCINE 00:36:18 05:56 4 ES 4 F PARIS DAUPHINE - PSL Paris
45 1077 JAGU ROMAIN 00:36:37 06:15 13 SE 41 M Université de Haute Alsace
46 1010 PARROT Constance 00:36:54 06:32 1 JU 5 F U. Clermont Auv. LACC
47 1001 ALLIER MELANIE 00:36:54 06:32 2 JU 6 F ASU GRENOBLE ALPES
48 1045 BROCHIER THOMAS 00:36:55 06:33 22 ES 42 M EC LYON
49 1114 LATAPY TITOUAN 00:36:55 06:33 8 JU 43 M LYON 2
50 1031 VELLA EMMA 00:36:57 06:35 3 JU 7 F INSA LYON
51 1007 DACHET ANAIS 00:36:57 06:35 5 ES 8 F UDL - UJM STAPS
52 1029 ROSALA HUMEAU PERRINE 00:36:59 06:37 1 SE 9 F ASU ANGERS
53 1070 GAUJARD TOM 00:37:00 06:38 14 SE 44 M ASUB - STAPS Dijon
54 1005 COSTE MANON 00:37:00 06:38 6 ES 10 F ASUB - STAPS Dijon
55 1061 FAISSE THIBAUT 00:37:05 06:43 9 JU 45 M Université de Savoie (IUT Ann)
56 1036 BAILLY-SALINS LOUIS 00:37:20 06:58 23 ES 46 M EC LYON
57 1004 BONY CLAIRE 00:37:26 07:04 7 ES 11 F EDC PARIS
58 1089 MARTINEZ JORDAN 00:37:35 07:13 24 ES 47 M ASU GRENOBLE ALPES IUT
59 1064 FEST JEAN-BAPTISTE 00:37:45 07:23 15 SE 48 M CENTRALE NANTES
60 1021 MAAMOURI NOEMIE 00:37:49 07:27 8 ES 12 F INSA LYON
61 1037 BESSE BRUNO 00:38:07 07:45 25 ES 49 M UDL - UTE LYON 1 SCIENCES
62 1014 JOUGLA EMMA 00:38:09 07:47 9 ES 13 F UT3 P. SABATIER TOULOUSE
63 1023 MANISSIER ALYCIA 00:38:18 07:56 2 SE 14 F UDL - UJM STAPS
64 1096 POURNY ANTOINE 00:38:19 07:57 16 SE 50 M UTE LYON 2
65 1121 GONCALVES MARIE BETTY 00:38:20 07:58 10 ES 15 F UDL - UTE LYON 3
66 1092 PECRIAUX CHARLES 00:38:22 08:00 26 ES 51 M UBO BREST
67 1040 BOURGEOIS CORENTIN 00:38:24 08:02 27 ES 52 M UTE LYON 2
68 1042 BOURHIS PAUL 00:38:24 08:02 28 ES 53 M EC LYON
69 1060 ESCALIER NICOLAS 00:38:26 08:04 29 ES 54 M U. Clermont Auv. SCIENCES
70 1076 IHEBBADJEN HASSANE 00:38:37 08:15 17 SE 55 M Université de Haute Alsace
71 1103 VILANOBA ALEXANDRE 00:38:42 08:20 10 JU 56 M INSA LYON
72 1002 AURICHE BERENGERE 00:38:44 08:22 4 JU 16 F U. Clermont Auv. STAPS
73 1074 HERMANN TIMOTHEE 00:38:56 08:34 30 ES 57 M IUT BELFORT-MONTBELIARD
74 1113 ROVRI SEBASTIEN 00:39:05 08:43 11 JU 58 M LYON 2
75 1062 FAURE VINCENT 00:39:16 08:54 31 ES 59 M U. Clermont Auv. LACC
76 1003 BAIRROS FLORENCE 00:39:27 09:05 11 ES 17 F U. Clermont Auv. STAPS
77 1050 CAZANAVE YANN 00:40:02 09:40 32 ES 60 M Staps Cuffies
78 1011 GRANDGIRARD EMMA 00:41:02 10:40 3 SE 18 F UT2 JEAN JAURES TOULOUSE
79 1018 LOMBARDO ESTHER 00:41:09 10:47 12 ES 19 F Université de Haute Alsace
80 1095 POUILLY RODRIGUE 00:41:16 10:54 33 ES 61 M U. Clermont Auv. STAPS
81 1075 HEURTEBIZE LUKAS 00:41:25 11:03 34 ES 62 M U. Clermont Auv. LACC
82 1026 PLESSE MATHILDE 00:41:26 11:04 13 ES 20 F A.S.Université Franche-Comté
83 1094 PLESSIS THEO 00:41:26 11:04 35 ES 63 M A.S.Université Franche-Comté
84 1101 THOMASSET BAPTISTE 00:41:50 11:28 12 JU 64 M UTE LYON 2
85 1032 WALTER LAETITIA 00:42:16 11:54 4 SE 21 F Université de Haute Alsace
86 1020 LORASCHI ARIANE 00:42:53 12:31 5 SE 22 F Université de Strasbourg
87 1107 BAUDOUIN DANIEL 00:43:22 13:00 1 V2 65 M Université de Haute Alsace
88 1013 HAMEURY JOANA 00:43:36 13:14 14 ES 23 F INSA LYON
89 1106 BARAUD VIRGINIE 00:44:08 13:46 6 SE 24 F LICENCES DIRIGEANTS LYON
90 1110 GUIRAUT Zoé 00:45:23 15:01 15 ES 25 F UTE LYON 2
91 1017 LE MAUX JULIA 00:46:06 15:44 5 JU 26 F INSA LYON
92 1019 LOMBARDOT NATIVE 00:47:25 17:03 16 ES 27 F ASU GRENOBLE ALPES STAPS
93 1015 KOSTENZER DAPHNE 00:51:02 20:40 17 ES 28 F Université de Haute Alsace
94 1006 COSTE ASTRID 00:53:27 23:05 18 ES 29 F EC LYON
95 1028 RISS CLAIRE 00:53:28 23:06 19 ES 30 F Université de Haute Alsace
  France FFSU 10km - ChronomĂ©trage Perf Event 2018
 
Nombre ou lettres (3 minimum)
Classement    
Filtre :
Rang :